sensor_id;sensor_type;location;lat;lon;timestamp;temperature;humidity
15879;DHT22;61999;51.514;14.614;2024-01-06T00:00:40;-1.60;91.40
15879;DHT22;61999;51.514;14.614;2024-01-06T00:03:08;-1.70;91.40
15879;DHT22;61999;51.514;14.614;2024-01-06T00:05:36;-1.60;91.50
15879;DHT22;61999;51.514;14.614;2024-01-06T00:08:04;-1.60;91.50
15879;DHT22;61999;51.514;14.614;2024-01-06T00:10:34;-1.60;91.40
15879;DHT22;61999;51.514;14.614;2024-01-06T00:13:02;-1.60;91.40
15879;DHT22;61999;51.514;14.614;2024-01-06T00:15:30;-1.60;91.40
15879;DHT22;61999;51.514;14.614;2024-01-06T00:17:58;-1.60;91.40
15879;DHT22;61999;51.514;14.614;2024-01-06T00:20:28;-1.60;91.40
15879;DHT22;61999;51.514;14.614;2024-01-06T00:22:56;-1.60;91.30
15879;DHT22;61999;51.514;14.614;2024-01-06T00:25:25;-1.60;91.20
15879;DHT22;61999;51.514;14.614;2024-01-06T00:28:12;-1.50;91.10
15879;DHT22;61999;51.514;14.614;2024-01-06T00:30:43;-1.50;91.00
15879;DHT22;61999;51.514;14.614;2024-01-06T00:33:11;-1.50;90.90
15879;DHT22;61999;51.514;14.614;2024-01-06T00:35:39;-1.50;90.90
15879;DHT22;61999;51.514;14.614;2024-01-06T00:38:07;-1.50;90.80
15879;DHT22;61999;51.514;14.614;2024-01-06T00:40:35;-1.60;90.70
15879;DHT22;61999;51.514;14.614;2024-01-06T00:43:05;-1.60;90.70
15879;DHT22;61999;51.514;14.614;2024-01-06T00:45:33;-1.60;90.60
15879;DHT22;61999;51.514;14.614;2024-01-06T00:48:01;-1.60;90.50
15879;DHT22;61999;51.514;14.614;2024-01-06T00:50:29;-1.60;90.40
15879;DHT22;61999;51.514;14.614;2024-01-06T00:52:57;-1.60;90.30
15879;DHT22;61999;51.514;14.614;2024-01-06T00:55:25;-1.70;90.20
15879;DHT22;61999;51.514;14.614;2024-01-06T00:57:53;-1.70;90.20
15879;DHT22;61999;51.514;14.614;2024-01-06T01:00:22;-1.70;90.20
15879;DHT22;61999;51.514;14.614;2024-01-06T01:02:50;-1.70;90.10
15879;DHT22;61999;51.514;14.614;2024-01-06T01:05:18;-1.70;90.10
15879;DHT22;61999;51.514;14.614;2024-01-06T01:07:46;-1.80;90.00
15879;DHT22;61999;51.514;14.614;2024-01-06T01:10:14;-1.80;89.80
15879;DHT22;61999;51.514;14.614;2024-01-06T01:12:42;-1.80;89.80
15879;DHT22;61999;51.514;14.614;2024-01-06T01:15:10;-1.80;89.70
15879;DHT22;61999;51.514;14.614;2024-01-06T01:17:39;-1.90;90.20
15879;DHT22;61999;51.514;14.614;2024-01-06T01:20:08;-1.90;89.60
15879;DHT22;61999;51.514;14.614;2024-01-06T01:22:37;-2.00;89.70
15879;DHT22;61999;51.514;14.614;2024-01-06T01:25:05;-2.00;89.60
15879;DHT22;61999;51.514;14.614;2024-01-06T01:27:34;-2.10;89.70
15879;DHT22;61999;51.514;14.614;2024-01-06T01:30:03;-2.10;89.80
15879;DHT22;61999;51.514;14.614;2024-01-06T01:32:32;-2.10;89.70
15879;DHT22;61999;51.514;14.614;2024-01-06T01:35:01;-2.10;89.60
15879;DHT22;61999;51.514;14.614;2024-01-06T01:37:30;-2.10;90.10
15879;DHT22;61999;51.514;14.614;2024-01-06T01:39:58;-2.10;89.50
15879;DHT22;61999;51.514;14.614;2024-01-06T01:42:26;-2.10;90.10
15879;DHT22;61999;51.514;14.614;2024-01-06T01:44:54;-2.20;89.50
15879;DHT22;61999;51.514;14.614;2024-01-06T01:47:22;-2.10;89.50
15879;DHT22;61999;51.514;14.614;2024-01-06T01:49:51;-2.20;89.50
15879;DHT22;61999;51.514;14.614;2024-01-06T01:52:21;-2.20;89.40
15879;DHT22;61999;51.514;14.614;2024-01-06T01:54:50;-2.20;89.40
15879;DHT22;61999;51.514;14.614;2024-01-06T01:57:21;-2.20;89.40
15879;DHT22;61999;51.514;14.614;2024-01-06T01:59:53;-2.20;89.40
15879;DHT22;61999;51.514;14.614;2024-01-06T02:02:23;-2.20;89.30
15879;DHT22;61999;51.514;14.614;2024-01-06T02:04:51;-2.20;89.30
15879;DHT22;61999;51.514;14.614;2024-01-06T02:07:20;-2.20;89.30
15879;DHT22;61999;51.514;14.614;2024-01-06T02:09:48;-2.20;89.30
15879;DHT22;61999;51.514;14.614;2024-01-06T02:12:15;-2.20;89.40
15879;DHT22;61999;51.514;14.614;2024-01-06T02:14:44;-2.20;89.50
15879;DHT22;61999;51.514;14.614;2024-01-06T02:17:12;-2.20;89.70
15879;DHT22;61999;51.514;14.614;2024-01-06T02:19:40;-2.10;89.90
15879;DHT22;61999;51.514;14.614;2024-01-06T02:22:09;-2.10;90.00
15879;DHT22;61999;51.514;14.614;2024-01-06T02:24:37;-2.10;90.40
15879;DHT22;61999;51.514;14.614;2024-01-06T02:27:05;-2.00;90.20
15879;DHT22;61999;51.514;14.614;2024-01-06T02:29:40;-1.90;90.20
15879;DHT22;61999;51.514;14.614;2024-01-06T02:32:08;-1.90;90.30
15879;DHT22;61999;51.514;14.614;2024-01-06T02:34:36;-1.80;90.30
15879;DHT22;61999;51.514;14.614;2024-01-06T02:37:05;-1.70;90.30
15879;DHT22;61999;51.514;14.614;2024-01-06T02:39:34;-1.70;90.30
15879;DHT22;61999;51.514;14.614;2024-01-06T02:42:03;-1.60;90.40
15879;DHT22;61999;51.514;14.614;2024-01-06T02:44:31;-1.60;90.40
15879;DHT22;61999;51.514;14.614;2024-01-06T02:46:59;-1.50;90.40
15879;DHT22;61999;51.514;14.614;2024-01-06T02:49:27;-1.50;90.40
15879;DHT22;61999;51.514;14.614;2024-01-06T02:51:55;-1.40;90.30
15879;DHT22;61999;51.514;14.614;2024-01-06T02:54:23;-1.40;90.20
15879;DHT22;61999;51.514;14.614;2024-01-06T02:56:52;-1.40;90.00
15879;DHT22;61999;51.514;14.614;2024-01-06T02:59:20;-1.40;89.80
15879;DHT22;61999;51.514;14.614;2024-01-06T03:01:48;-1.40;89.20
15879;DHT22;61999;51.514;14.614;2024-01-06T03:04:16;-1.50;89.50
15879;DHT22;61999;51.514;14.614;2024-01-06T03:06:44;-1.50;89.70
15879;DHT22;61999;51.514;14.614;2024-01-06T03:09:18;-1.40;90.00
15879;DHT22;61999;51.514;14.614;2024-01-06T03:11:46;-1.40;90.00
15879;DHT22;61999;51.514;14.614;2024-01-06T03:14:16;-1.40;89.70
15879;DHT22;61999;51.514;14.614;2024-01-06T03:16:44;-1.50;89.80
15879;DHT22;61999;51.514;14.614;2024-01-06T03:19:12;-1.50;90.00
15879;DHT22;61999;51.514;14.614;2024-01-06T03:21:40;-1.40;90.00
15879;DHT22;61999;51.514;14.614;2024-01-06T03:24:08;-1.40;90.00
15879;DHT22;61999;51.514;14.614;2024-01-06T03:26:36;-1.40;90.00
15879;DHT22;61999;51.514;14.614;2024-01-06T03:29:04;-1.40;90.00
15879;DHT22;61999;51.514;14.614;2024-01-06T03:31:34;-1.30;90.10
15879;DHT22;61999;51.514;14.614;2024-01-06T03:34:02;-1.30;90.10
15879;DHT22;61999;51.514;14.614;2024-01-06T03:36:30;-1.30;90.10
15879;DHT22;61999;51.514;14.614;2024-01-06T03:38:58;-1.30;90.00
15879;DHT22;61999;51.514;14.614;2024-01-06T03:41:26;-1.30;89.90
15879;DHT22;61999;51.514;14.614;2024-01-06T03:43:54;-1.30;89.80
15879;DHT22;61999;51.514;14.614;2024-01-06T03:46:22;-1.30;89.80
15879;DHT22;61999;51.514;14.614;2024-01-06T03:48:52;-1.20;89.70
15879;DHT22;61999;51.514;14.614;2024-01-06T03:51:20;-1.30;89.70
15879;DHT22;61999;51.514;14.614;2024-01-06T03:53:48;-1.20;89.70
15879;DHT22;61999;51.514;14.614;2024-01-06T03:56:16;-1.30;89.60
15879;DHT22;61999;51.514;14.614;2024-01-06T03:58:47;-1.30;89.50
15879;DHT22;61999;51.514;14.614;2024-01-06T04:01:15;-1.30;89.50
15879;DHT22;61999;51.514;14.614;2024-01-06T04:03:43;-1.30;89.40
15879;DHT22;61999;51.514;14.614;2024-01-06T04:06:13;-1.30;89.30
15879;DHT22;61999;51.514;14.614;2024-01-06T04:08:41;-1.30;89.10
15879;DHT22;61999;51.514;14.614;2024-01-06T04:11:09;-1.30;89.10
15879;DHT22;61999;51.514;14.614;2024-01-06T04:13:37;-1.40;88.90
15879;DHT22;61999;51.514;14.614;2024-01-06T04:16:05;-1.40;88.90
15879;DHT22;61999;51.514;14.614;2024-01-06T04:18:33;-1.40;88.90
15879;DHT22;61999;51.514;14.614;2024-01-06T04:21:01;-1.40;88.80
15879;DHT22;61999;51.514;14.614;2024-01-06T04:23:31;-1.40;88.70
15879;DHT22;61999;51.514;14.614;2024-01-06T04:25:59;-1.50;88.70
15879;DHT22;61999;51.514;14.614;2024-01-06T04:28:28;-1.50;88.80
15879;DHT22;61999;51.514;14.614;2024-01-06T04:30:56;-1.50;88.80
15879;DHT22;61999;51.514;14.614;2024-01-06T04:33:24;-1.50;88.80
15879;DHT22;61999;51.514;14.614;2024-01-06T04:35:52;-1.60;88.90
15879;DHT22;61999;51.514;14.614;2024-01-06T04:38:20;-1.50;89.20
15879;DHT22;61999;51.514;14.614;2024-01-06T04:40:50;-1.50;89.30
15879;DHT22;61999;51.514;14.614;2024-01-06T04:43:18;-1.40;89.30
15879;DHT22;61999;51.514;14.614;2024-01-06T04:45:46;-1.40;89.40
15879;DHT22;61999;51.514;14.614;2024-01-06T04:48:14;-1.40;89.40
15879;DHT22;61999;51.514;14.614;2024-01-06T04:50:42;-1.30;89.50
15879;DHT22;61999;51.514;14.614;2024-01-06T04:53:10;-1.30;89.60
15879;DHT22;61999;51.514;14.614;2024-01-06T04:55:38;-1.30;89.60
15879;DHT22;61999;51.514;14.614;2024-01-06T04:58:07;-1.30;89.70
15879;DHT22;61999;51.514;14.614;2024-01-06T05:00:35;-1.20;89.60
15879;DHT22;61999;51.514;14.614;2024-01-06T05:03:04;-1.20;89.70
15879;DHT22;61999;51.514;14.614;2024-01-06T05:05:32;-1.20;89.70
15879;DHT22;61999;51.514;14.614;2024-01-06T05:08:00;-1.20;89.60
15879;DHT22;61999;51.514;14.614;2024-01-06T05:10:28;-1.10;89.70
15879;DHT22;61999;51.514;14.614;2024-01-06T05:12:56;-1.20;89.60
15879;DHT22;61999;51.514;14.614;2024-01-06T05:15:26;-1.20;89.50
15879;DHT22;61999;51.514;14.614;2024-01-06T05:17:55;-1.20;89.60
15879;DHT22;61999;51.514;14.614;2024-01-06T05:20:23;-1.20;89.60
15879;DHT22;61999;51.514;14.614;2024-01-06T05:22:51;-1.20;89.60
15879;DHT22;61999;51.514;14.614;2024-01-06T05:25:19;-1.10;89.70
15879;DHT22;61999;51.514;14.614;2024-01-06T05:27:47;-1.00;89.80
15879;DHT22;61999;51.514;14.614;2024-01-06T05:30:15;-1.10;89.60
15879;DHT22;61999;51.514;14.614;2024-01-06T05:32:57;-1.20;89.80
15879;DHT22;61999;51.514;14.614;2024-01-06T05:35:26;-1.20;89.70
15879;DHT22;61999;51.514;14.614;2024-01-06T05:37:54;-1.10;89.80
15879;DHT22;61999;51.514;14.614;2024-01-06T05:40:22;-1.10;89.80
15879;DHT22;61999;51.514;14.614;2024-01-06T05:42:50;-1.10;89.70
15879;DHT22;61999;51.514;14.614;2024-01-06T05:45:22;-1.10;89.80
15879;DHT22;61999;51.514;14.614;2024-01-06T05:47:52;-1.10;89.80
15879;DHT22;61999;51.514;14.614;2024-01-06T05:50:39;-1.10;89.80
15879;DHT22;61999;51.514;14.614;2024-01-06T05:53:10;-1.00;89.80
15879;DHT22;61999;51.514;14.614;2024-01-06T05:55:40;-1.00;89.80
15879;DHT22;61999;51.514;14.614;2024-01-06T05:58:09;-1.00;89.70
15879;DHT22;61999;51.514;14.614;2024-01-06T06:00:37;-1.00;89.80
15879;DHT22;61999;51.514;14.614;2024-01-06T06:03:06;-1.00;89.80
15879;DHT22;61999;51.514;14.614;2024-01-06T06:05:35;-1.00;89.80
15879;DHT22;61999;51.514;14.614;2024-01-06T06:08:04;-1.10;89.40
15879;DHT22;61999;51.514;14.614;2024-01-06T06:10:32;-1.10;89.80
15879;DHT22;61999;51.514;14.614;2024-01-06T06:13:18;-1.00;89.90
15879;DHT22;61999;51.514;14.614;2024-01-06T06:15:46;-1.00;89.80
15879;DHT22;61999;51.514;14.614;2024-01-06T06:18:15;-1.00;89.50
15879;DHT22;61999;51.514;14.614;2024-01-06T06:20:44;-1.10;89.20
15879;DHT22;61999;51.514;14.614;2024-01-06T06:23:12;-1.10;89.50
15879;DHT22;61999;51.514;14.614;2024-01-06T06:25:40;-1.10;89.70
15879;DHT22;61999;51.514;14.614;2024-01-06T06:28:09;-1.10;89.70
15879;DHT22;61999;51.514;14.614;2024-01-06T06:30:37;-1.10;89.30
15879;DHT22;61999;51.514;14.614;2024-01-06T06:33:07;-1.10;89.60
15879;DHT22;61999;51.514;14.614;2024-01-06T06:35:36;-1.20;89.70
15879;DHT22;61999;51.514;14.614;2024-01-06T06:38:05;-1.50;89.40
15879;DHT22;61999;51.514;14.614;2024-01-06T06:40:33;-1.60;90.10
15879;DHT22;61999;51.514;14.614;2024-01-06T06:43:01;-1.50;90.00
15879;DHT22;61999;51.514;14.614;2024-01-06T06:45:29;-1.40;90.00
15879;DHT22;61999;51.514;14.614;2024-01-06T06:47:57;-1.30;90.10
15879;DHT22;61999;51.514;14.614;2024-01-06T06:50:25;-1.30;90.00
15879;DHT22;61999;51.514;14.614;2024-01-06T06:52:54;-1.20;90.00
15879;DHT22;61999;51.514;14.614;2024-01-06T06:55:22;-1.20;90.00
15879;DHT22;61999;51.514;14.614;2024-01-06T06:57:50;-1.20;90.00
15879;DHT22;61999;51.514;14.614;2024-01-06T07:00:19;-1.10;90.00
15879;DHT22;61999;51.514;14.614;2024-01-06T07:02:47;-1.10;89.90
15879;DHT22;61999;51.514;14.614;2024-01-06T07:05:15;-1.00;89.60
15879;DHT22;61999;51.514;14.614;2024-01-06T07:07:44;-1.10;89.60
15879;DHT22;61999;51.514;14.614;2024-01-06T07:10:14;-1.00;89.50
15879;DHT22;61999;51.514;14.614;2024-01-06T07:12:42;-1.00;89.40
15879;DHT22;61999;51.514;14.614;2024-01-06T07:15:10;-1.00;89.10
15879;DHT22;61999;51.514;14.614;2024-01-06T07:17:38;-0.90;89.10
15879;DHT22;61999;51.514;14.614;2024-01-06T07:20:07;-1.00;88.80
15879;DHT22;61999;51.514;14.614;2024-01-06T07:22:36;-1.10;88.40
15879;DHT22;61999;51.514;14.614;2024-01-06T07:25:04;-1.00;88.70
15879;DHT22;61999;51.514;14.614;2024-01-06T07:27:35;-1.00;88.80
15879;DHT22;61999;51.514;14.614;2024-01-06T07:30:05;-1.10;88.50
15879;DHT22;61999;51.514;14.614;2024-01-06T07:32:35;-1.20;87.30
15879;DHT22;61999;51.514;14.614;2024-01-06T07:35:04;-1.20;88.50
15879;DHT22;61999;51.514;14.614;2024-01-06T07:37:32;-1.10;88.60
15879;DHT22;61999;51.514;14.614;2024-01-06T07:40:06;-1.10;88.00
15879;DHT22;61999;51.514;14.614;2024-01-06T07:42:36;-1.20;87.30
15879;DHT22;61999;51.514;14.614;2024-01-06T07:45:08;-1.20;88.00
15879;DHT22;61999;51.514;14.614;2024-01-06T07:47:37;-1.30;88.00
15879;DHT22;61999;51.514;14.614;2024-01-06T07:50:08;-1.30;88.20
15879;DHT22;61999;51.514;14.614;2024-01-06T07:52:37;-1.20;88.20
15879;DHT22;61999;51.514;14.614;2024-01-06T07:55:06;-1.20;88.30
15879;DHT22;61999;51.514;14.614;2024-01-06T07:57:36;-1.20;88.40
15879;DHT22;61999;51.514;14.614;2024-01-06T08:00:05;-1.20;88.40
15879;DHT22;61999;51.514;14.614;2024-01-06T08:02:34;-1.20;88.40
15879;DHT22;61999;51.514;14.614;2024-01-06T08:05:01;-1.10;88.50
15879;DHT22;61999;51.514;14.614;2024-01-06T08:07:30;-1.10;88.40
15879;DHT22;61999;51.514;14.614;2024-01-06T08:09:58;-1.10;88.40
15879;DHT22;61999;51.514;14.614;2024-01-06T08:12:28;-1.10;88.40
15879;DHT22;61999;51.514;14.614;2024-01-06T08:14:58;-1.00;88.30
15879;DHT22;61999;51.514;14.614;2024-01-06T08:17:26;-1.00;88.10
15879;DHT22;61999;51.514;14.614;2024-01-06T08:19:54;-1.00;87.90
15879;DHT22;61999;51.514;14.614;2024-01-06T08:22:22;-1.00;87.90
15879;DHT22;61999;51.514;14.614;2024-01-06T08:24:51;-0.90;88.00
15879;DHT22;61999;51.514;14.614;2024-01-06T08:27:20;-1.00;87.50
15879;DHT22;61999;51.514;14.614;2024-01-06T08:29:50;-1.00;87.70
15879;DHT22;61999;51.514;14.614;2024-01-06T08:32:19;-1.00;87.80
15879;DHT22;61999;51.514;14.614;2024-01-06T08:34:47;-1.00;87.70
15879;DHT22;61999;51.514;14.614;2024-01-06T08:37:15;-1.10;87.50
15879;DHT22;61999;51.514;14.614;2024-01-06T08:39:43;-1.30;87.20
15879;DHT22;61999;51.514;14.614;2024-01-06T08:42:11;-1.20;87.70
15879;DHT22;61999;51.514;14.614;2024-01-06T08:44:39;-1.10;87.60
15879;DHT22;61999;51.514;14.614;2024-01-06T08:47:07;-1.10;87.70
15879;DHT22;61999;51.514;14.614;2024-01-06T08:49:37;-1.10;87.80
15879;DHT22;61999;51.514;14.614;2024-01-06T08:52:05;-1.00;87.90
15879;DHT22;61999;51.514;14.614;2024-01-06T08:54:33;-0.90;87.80
15879;DHT22;61999;51.514;14.614;2024-01-06T08:57:02;-0.90;87.70
15879;DHT22;61999;51.514;14.614;2024-01-06T08:59:30;-0.90;87.70
15879;DHT22;61999;51.514;14.614;2024-01-06T09:01:58;-0.90;87.90
15879;DHT22;61999;51.514;14.614;2024-01-06T09:04:26;-0.90;88.00
15879;DHT22;61999;51.514;14.614;2024-01-06T09:06:56;-0.80;88.00
15879;DHT22;61999;51.514;14.614;2024-01-06T09:09:24;-0.80;87.90
15879;DHT22;61999;51.514;14.614;2024-01-06T09:11:52;-0.70;88.00
15879;DHT22;61999;51.514;14.614;2024-01-06T09:14:20;-0.70;87.70
15879;DHT22;61999;51.514;14.614;2024-01-06T09:16:48;-0.70;87.70
15879;DHT22;61999;51.514;14.614;2024-01-06T09:19:16;-0.60;87.90
15879;DHT22;61999;51.514;14.614;2024-01-06T09:21:44;-0.60;87.90
15879;DHT22;61999;51.514;14.614;2024-01-06T09:24:13;-0.60;87.80
15879;DHT22;61999;51.514;14.614;2024-01-06T09:26:42;-0.60;87.60
15879;DHT22;61999;51.514;14.614;2024-01-06T09:29:16;-0.50;87.50
15879;DHT22;61999;51.514;14.614;2024-01-06T09:31:44;-0.50;87.30
15879;DHT22;61999;51.514;14.614;2024-01-06T09:34:13;-0.60;86.30
15879;DHT22;61999;51.514;14.614;2024-01-06T09:36:41;-0.60;86.10
15879;DHT22;61999;51.514;14.614;2024-01-06T09:39:09;-0.60;86.90
15879;DHT22;61999;51.514;14.614;2024-01-06T09:41:39;-0.50;87.10
15879;DHT22;61999;51.514;14.614;2024-01-06T09:44:07;-0.50;86.90
15879;DHT22;61999;51.514;14.614;2024-01-06T09:46:35;-0.50;87.10
15879;DHT22;61999;51.514;14.614;2024-01-06T09:49:08;-0.50;87.20
15879;DHT22;61999;51.514;14.614;2024-01-06T09:51:37;-0.40;87.20
15879;DHT22;61999;51.514;14.614;2024-01-06T09:54:09;-0.40;87.30
15879;DHT22;61999;51.514;14.614;2024-01-06T09:56:42;-0.30;87.40
15879;DHT22;61999;51.514;14.614;2024-01-06T09:59:14;-0.30;86.20
15879;DHT22;61999;51.514;14.614;2024-01-06T10:01:42;-0.40;86.80
15879;DHT22;61999;51.514;14.614;2024-01-06T10:04:12;-0.30;86.80
15879;DHT22;61999;51.514;14.614;2024-01-06T10:06:43;-0.30;86.80
15879;DHT22;61999;51.514;14.614;2024-01-06T10:09:12;-0.30;86.80
15879;DHT22;61999;51.514;14.614;2024-01-06T10:11:42;-0.30;86.50
15879;DHT22;61999;51.514;14.614;2024-01-06T10:14:11;-0.30;85.30
15879;DHT22;61999;51.514;14.614;2024-01-06T10:16:39;-0.30;86.30
15879;DHT22;61999;51.514;14.614;2024-01-06T10:19:08;-0.30;86.20
15879;DHT22;61999;51.514;14.614;2024-01-06T10:21:36;-0.30;86.40
15879;DHT22;61999;51.514;14.614;2024-01-06T10:24:07;-0.30;86.50
15879;DHT22;61999;51.514;14.614;2024-01-06T10:26:36;-0.20;86.70
15879;DHT22;61999;51.514;14.614;2024-01-06T10:29:06;-0.20;85.00
15879;DHT22;61999;51.514;14.614;2024-01-06T10:31:34;-0.30;86.00
15879;DHT22;61999;51.514;14.614;2024-01-06T10:34:03;-0.20;86.20
15879;DHT22;61999;51.514;14.614;2024-01-06T10:36:33;-0.20;86.30
15879;DHT22;61999;51.514;14.614;2024-01-06T10:39:02;-0.10;86.40
15879;DHT22;61999;51.514;14.614;2024-01-06T10:41:31;-0.10;86.40
15879;DHT22;61999;51.514;14.614;2024-01-06T10:44:00;-0.20;84.00
15879;DHT22;61999;51.514;14.614;2024-01-06T10:46:32;-0.20;85.70
15879;DHT22;61999;51.514;14.614;2024-01-06T10:49:00;-0.20;85.90
15879;DHT22;61999;51.514;14.614;2024-01-06T10:51:32;-0.20;85.40
15879;DHT22;61999;51.514;14.614;2024-01-06T10:54:01;-0.20;85.60
15879;DHT22;61999;51.514;14.614;2024-01-06T10:56:30;-0.10;85.90
15879;DHT22;61999;51.514;14.614;2024-01-06T10:58:58;-0.10;86.00
15879;DHT22;61999;51.514;14.614;2024-01-06T11:01:29;-0.10;86.20
15879;DHT22;61999;51.514;14.614;2024-01-06T11:04:00;-0.10;85.80
15879;DHT22;61999;51.514;14.614;2024-01-06T11:06:31;-0.10;85.10
15879;DHT22;61999;51.514;14.614;2024-01-06T11:09:06;-0.10;85.80
15879;DHT22;61999;51.514;14.614;2024-01-06T11:11:39;-0.10;85.70
15879;DHT22;61999;51.514;14.614;2024-01-06T11:14:18;-0.10;85.90
15879;DHT22;61999;51.514;14.614;2024-01-06T11:16:47;-0.10;85.80
15879;DHT22;61999;51.514;14.614;2024-01-06T11:19:45;-0.10;85.30
15879;DHT22;61999;51.514;14.614;2024-01-06T11:22:25;-0.40;83.60
15879;DHT22;61999;51.514;14.614;2024-01-06T11:24:56;-0.30;84.80
15879;DHT22;61999;51.514;14.614;2024-01-06T11:27:31;-0.50;83.70
15879;DHT22;61999;51.514;14.614;2024-01-06T11:30:00;-0.40;85.00
15879;DHT22;61999;51.514;14.614;2024-01-06T11:32:33;-0.40;85.00
15879;DHT22;61999;51.514;14.614;2024-01-06T11:35:09;-0.40;84.90
15879;DHT22;61999;51.514;14.614;2024-01-06T11:37:55;-0.30;85.30
15879;DHT22;61999;51.514;14.614;2024-01-06T11:40:33;-0.30;85.40
15879;DHT22;61999;51.514;14.614;2024-01-06T11:43:04;-0.20;85.30
15879;DHT22;61999;51.514;14.614;2024-01-06T11:45:35;-0.20;84.90
15879;DHT22;61999;51.514;14.614;2024-01-06T11:48:05;-0.10;85.10
15879;DHT22;61999;51.514;14.614;2024-01-06T11:50:39;-0.10;85.10
15879;DHT22;61999;51.514;14.614;2024-01-06T11:53:08;-0.10;85.10
15879;DHT22;61999;51.514;14.614;2024-01-06T11:55:39;-0.10;85.10
15879;DHT22;61999;51.514;14.614;2024-01-06T11:58:09;-0.10;84.80
15879;DHT22;61999;51.514;14.614;2024-01-06T12:00:37;-0.10;85.00
15879;DHT22;61999;51.514;14.614;2024-01-06T12:03:06;-0.10;84.90
15879;DHT22;61999;51.514;14.614;2024-01-06T12:05:36;0.00;84.70
15879;DHT22;61999;51.514;14.614;2024-01-06T12:08:04;-0.10;84.60
15879;DHT22;61999;51.514;14.614;2024-01-06T12:10:33;0.00;84.80
15879;DHT22;61999;51.514;14.614;2024-01-06T12:13:03;0.00;84.80
15879;DHT22;61999;51.514;14.614;2024-01-06T12:15:36;0.00;84.50
15879;DHT22;61999;51.514;14.614;2024-01-06T12:18:06;-0.10;82.80
15879;DHT22;61999;51.514;14.614;2024-01-06T12:20:36;-0.10;84.10
15879;DHT22;61999;51.514;14.614;2024-01-06T12:23:04;-0.10;84.40
15879;DHT22;61999;51.514;14.614;2024-01-06T12:25:34;-0.10;84.50
15879;DHT22;61999;51.514;14.614;2024-01-06T12:28:05;0.00;84.50
15879;DHT22;61999;51.514;14.614;2024-01-06T12:30:34;0.00;84.20
15879;DHT22;61999;51.514;14.614;2024-01-06T12:33:02;0.00;84.10
15879;DHT22;61999;51.514;14.614;2024-01-06T12:35:31;-0.10;83.50
15879;DHT22;61999;51.514;14.614;2024-01-06T12:38:01;-0.10;84.00
15879;DHT22;61999;51.514;14.614;2024-01-06T12:40:32;-0.10;84.10
15879;DHT22;61999;51.514;14.614;2024-01-06T12:43:04;0.00;84.40
15879;DHT22;61999;51.514;14.614;2024-01-06T12:45:33;0.00;84.30
15879;DHT22;61999;51.514;14.614;2024-01-06T12:48:01;0.00;84.40
15879;DHT22;61999;51.514;14.614;2024-01-06T12:50:29;0.00;84.40
15879;DHT22;61999;51.514;14.614;2024-01-06T12:52:57;0.00;84.30
15879;DHT22;61999;51.514;14.614;2024-01-06T12:55:26;0.00;84.20
15879;DHT22;61999;51.514;14.614;2024-01-06T12:57:55;0.00;84.10
15879;DHT22;61999;51.514;14.614;2024-01-06T13:00:23;0.00;83.70
15879;DHT22;61999;51.514;14.614;2024-01-06T13:02:51;0.00;83.80
15879;DHT22;61999;51.514;14.614;2024-01-06T13:05:19;0.10;83.70
15879;DHT22;61999;51.514;14.614;2024-01-06T13:07:48;0.00;83.60
15879;DHT22;61999;51.514;14.614;2024-01-06T13:10:17;0.00;83.50
15879;DHT22;61999;51.514;14.614;2024-01-06T13:12:46;0.00;83.60
15879;DHT22;61999;51.514;14.614;2024-01-06T13:15:15;0.00;83.60
15879;DHT22;61999;51.514;14.614;2024-01-06T13:17:44;0.00;83.60
15879;DHT22;61999;51.514;14.614;2024-01-06T13:20:13;0.00;83.50
15879;DHT22;61999;51.514;14.614;2024-01-06T13:22:43;-0.10;83.50
15879;DHT22;61999;51.514;14.614;2024-01-06T13:25:11;-0.20;82.70
15879;DHT22;61999;51.514;14.614;2024-01-06T13:27:39;-0.20;83.50
15879;DHT22;61999;51.514;14.614;2024-01-06T13:30:09;-0.20;83.60
15879;DHT22;61999;51.514;14.614;2024-01-06T13:32:41;-0.20;83.50
15879;DHT22;61999;51.514;14.614;2024-01-06T13:35:09;-0.20;83.50
15879;DHT22;61999;51.514;14.614;2024-01-06T13:37:38;-0.20;83.20
15879;DHT22;61999;51.514;14.614;2024-01-06T13:40:09;-0.20;83.30
15879;DHT22;61999;51.514;14.614;2024-01-06T13:42:37;-0.20;83.40
15879;DHT22;61999;51.514;14.614;2024-01-06T13:45:06;-0.20;83.40
15879;DHT22;61999;51.514;14.614;2024-01-06T13:47:36;-0.40;83.00
15879;DHT22;61999;51.514;14.614;2024-01-06T13:50:04;-0.30;83.40
15879;DHT22;61999;51.514;14.614;2024-01-06T13:52:33;-0.30;83.50
15879;DHT22;61999;51.514;14.614;2024-01-06T13:55:01;-0.30;83.50
15879;DHT22;61999;51.514;14.614;2024-01-06T13:57:29;-0.30;83.50
15879;DHT22;61999;51.514;14.614;2024-01-06T13:59:57;-0.40;83.50
15879;DHT22;61999;51.514;14.614;2024-01-06T14:02:25;-0.40;83.60
15879;DHT22;61999;51.514;14.614;2024-01-06T14:04:55;-0.30;83.70
15879;DHT22;61999;51.514;14.614;2024-01-06T14:07:23;-0.30;83.70
15879;DHT22;61999;51.514;14.614;2024-01-06T14:09:52;-0.30;83.70
15879;DHT22;61999;51.514;14.614;2024-01-06T14:12:20;-0.40;83.60
15879;DHT22;61999;51.514;14.614;2024-01-06T14:14:48;-0.40;83.70
15879;DHT22;61999;51.514;14.614;2024-01-06T14:17:16;-0.40;83.70
15879;DHT22;61999;51.514;14.614;2024-01-06T14:19:44;-0.40;83.60
15879;DHT22;61999;51.514;14.614;2024-01-06T14:22:14;-0.40;83.60
15879;DHT22;61999;51.514;14.614;2024-01-06T14:24:44;-0.40;83.60
15879;DHT22;61999;51.514;14.614;2024-01-06T14:27:12;-0.40;83.60
15879;DHT22;61999;51.514;14.614;2024-01-06T14:29:40;-0.40;83.60
15879;DHT22;61999;51.514;14.614;2024-01-06T14:32:09;-0.30;83.30
15879;DHT22;61999;51.514;14.614;2024-01-06T14:34:36;-0.30;83.10
15879;DHT22;61999;51.514;14.614;2024-01-06T14:37:05;-0.40;83.00
15879;DHT22;61999;51.514;14.614;2024-01-06T14:39:35;-0.40;82.80
15879;DHT22;61999;51.514;14.614;2024-01-06T14:42:04;-0.40;82.70
15879;DHT22;61999;51.514;14.614;2024-01-06T14:44:32;-0.50;82.70
15879;DHT22;61999;51.514;14.614;2024-01-06T14:47:00;-0.50;82.80
15879;DHT22;61999;51.514;14.614;2024-01-06T14:49:28;-0.60;82.80
15879;DHT22;61999;51.514;14.614;2024-01-06T14:51:56;-0.60;83.00
15879;DHT22;61999;51.514;14.614;2024-01-06T14:54:24;-0.70;83.10
15879;DHT22;61999;51.514;14.614;2024-01-06T14:56:53;-0.70;83.40
15879;DHT22;61999;51.514;14.614;2024-01-06T14:59:21;-0.70;83.60
15879;DHT22;61999;51.514;14.614;2024-01-06T15:01:49;-0.70;83.70
15879;DHT22;61999;51.514;14.614;2024-01-06T15:04:18;-0.70;83.70
15879;DHT22;61999;51.514;14.614;2024-01-06T15:06:46;-0.70;83.60
15879;DHT22;61999;51.514;14.614;2024-01-06T15:11:44;-0.80;83.70
15879;DHT22;61999;51.514;14.614;2024-01-06T15:14:14;-0.80;84.60
15879;DHT22;61999;51.514;14.614;2024-01-06T15:16:41;-0.90;83.80
15879;DHT22;61999;51.514;14.614;2024-01-06T15:19:10;-0.90;83.90
15879;DHT22;61999;51.514;14.614;2024-01-06T15:21:39;-0.90;84.10
15879;DHT22;61999;51.514;14.614;2024-01-06T15:24:07;-1.00;84.20
15879;DHT22;61999;51.514;14.614;2024-01-06T15:26:36;-1.00;84.40
15879;DHT22;61999;51.514;14.614;2024-01-06T15:29:04;-1.00;84.40
15879;DHT22;61999;51.514;14.614;2024-01-06T15:31:33;-1.00;84.40